createdAt,value
2018-02-10T00:00:23.508Z,100594
2018-02-10T00:02:51.921Z,100612
2018-02-10T00:05:20.946Z,100613
2018-02-10T00:07:49.167Z,100609
2018-02-10T00:10:17.380Z,100616
2018-02-10T00:12:45.634Z,100614
2018-02-10T00:15:14.627Z,100613
2018-02-10T00:17:43.619Z,100617
2018-02-10T00:20:12.648Z,100608
2018-02-10T00:22:40.865Z,100613
2018-02-10T00:25:09.104Z,100619
2018-02-10T00:27:37.387Z,100604
2018-02-10T00:30:05.630Z,100609
2018-02-10T00:32:33.863Z,100620
2018-02-10T00:35:02.135Z,100622
2018-02-10T00:37:30.364Z,100619
2018-02-10T00:39:58.591Z,100628
2018-02-10T00:42:26.853Z,100622
2018-02-10T00:44:55.077Z,100629
2018-02-10T00:47:23.296Z,100629
2018-02-10T00:49:51.568Z,100626
2018-02-10T00:52:19.800Z,100620
2018-02-10T00:54:48.027Z,100632
2018-02-10T00:57:17.105Z,100634
2018-02-10T00:59:45.324Z,100641
2018-02-10T01:02:14.310Z,100627
2018-02-10T01:04:42.573Z,100623
2018-02-10T01:07:10.802Z,100637
2018-02-10T01:09:39.058Z,100633
2018-02-10T01:12:07.323Z,100630
2018-02-10T01:14:36.310Z,100614
2018-02-10T01:17:05.287Z,100618
2018-02-10T01:19:33.601Z,100614
2018-02-10T01:22:01.817Z,100614
2018-02-10T01:24:30.052Z,100614
2018-02-10T01:26:58.321Z,100614
2018-02-10T01:29:26.540Z,100620
2018-02-10T01:31:54.790Z,100619
2018-02-10T01:34:23.062Z,100623
2018-02-10T01:36:51.285Z,100612
2018-02-10T01:39:19.506Z,100611
2018-02-10T01:41:47.773Z,100619
2018-02-10T01:44:15.991Z,100623
2018-02-10T01:46:44.213Z,100616
2018-02-10T01:49:13.252Z,100624
2018-02-10T01:51:41.492Z,100628
2018-02-10T01:54:09.712Z,100619
2018-02-10T01:56:37.989Z,100613
2018-02-10T01:59:06.218Z,100623
2018-02-10T02:01:34.439Z,100617
2018-02-10T02:04:02.706Z,100614
2018-02-10T02:06:31.335Z,100617
2018-02-10T02:09:00.346Z,100618
2018-02-10T02:11:28.602Z,100613
2018-02-10T02:13:57.595Z,100610
2018-02-10T02:16:26.603Z,100611
2018-02-10T02:18:54.883Z,100613
2018-02-10T02:21:23.112Z,100611
2018-02-10T02:23:51.336Z,100613
2018-02-10T02:26:19.604Z,100616
2018-02-10T02:28:47.890Z,100612
2018-02-10T02:31:16.114Z,100609
2018-02-10T02:33:44.390Z,100620
2018-02-10T02:36:12.619Z,100623
2018-02-10T02:38:40.842Z,100614
2018-02-10T02:41:09.094Z,100617
2018-02-10T02:43:37.316Z,100610
2018-02-10T02:46:06.301Z,100609
2018-02-10T02:48:34.555Z,100620
2018-02-10T02:51:02.785Z,100614
2018-02-10T02:53:31.013Z,100613
2018-02-10T02:55:59.270Z,100608
2018-02-10T02:58:27.493Z,100614
2018-02-10T03:00:56.476Z,100613
2018-02-10T03:03:25.489Z,100614
2018-02-10T03:05:53.712Z,100609
2018-02-10T03:08:21.942Z,100619
2018-02-10T03:10:50.209Z,100617
2018-02-10T03:13:18.452Z,100620
2018-02-10T03:15:46.667Z,100605
2018-02-10T03:18:14.927Z,100618
2018-02-10T03:20:43.909Z,100616
2018-02-10T03:23:12.887Z,100619
2018-02-10T03:25:41.143Z,100620
2018-02-10T03:28:09.362Z,100614
2018-02-10T03:30:38.366Z,100615
2018-02-10T03:33:06.629Z,100615
2018-02-10T03:35:35.623Z,100616
2018-02-10T03:38:04.606Z,100615
2018-02-10T03:40:33.624Z,100602
2018-02-10T03:43:01.827Z,100605
2018-02-10T03:45:30.054Z,100605
2018-02-10T03:47:59.091Z,100609
2018-02-10T03:50:28.100Z,100617
2018-02-10T03:52:56.351Z,100616
2018-02-10T03:55:24.633Z,100609
2018-02-10T03:57:52.862Z,100610
2018-02-10T04:00:21.847Z,100610
2018-02-10T04:02:52.915Z,100613
2018-02-10T04:05:21.145Z,100611
2018-02-10T04:07:49.381Z,100613
2018-02-10T04:10:17.704Z,100611
2018-02-10T04:12:46.048Z,100616
2018-02-10T04:15:14.276Z,100611
2018-02-10T04:17:43.295Z,100609
2018-02-10T04:20:11.532Z,100609
2018-02-10T04:22:40.532Z,100617
2018-02-10T04:25:09.583Z,100627
2018-02-10T04:27:37.820Z,100620
2018-02-10T04:30:06.080Z,100632
2018-02-10T04:32:35.109Z,100636
2018-02-10T04:35:03.339Z,100624
2018-02-10T04:37:32.344Z,100634
2018-02-10T04:40:01.393Z,100628
2018-02-10T04:42:29.630Z,100629
2018-02-10T04:44:57.867Z,100631
2018-02-10T04:47:26.138Z,100629
2018-02-10T04:49:54.381Z,100627
2018-02-10T04:52:22.612Z,100632
2018-02-10T04:54:51.631Z,100626
2018-02-10T04:57:19.889Z,100626
2018-02-10T04:59:48.125Z,100633
2018-02-10T05:02:16.418Z,100624
2018-02-10T05:04:45.407Z,100629
2018-02-10T05:07:13.626Z,100629
2018-02-10T05:09:41.889Z,100627
2018-02-10T05:12:10.121Z,100634
2018-02-10T05:14:38.336Z,100624
2018-02-10T05:17:06.577Z,100624
2018-02-10T05:19:34.817Z,100626
2018-02-10T05:22:03.143Z,100629
2018-02-10T05:24:31.345Z,100630
2018-02-10T05:26:59.564Z,100633
2018-02-10T05:29:27.832Z,100638
2018-02-10T05:31:56.099Z,100625
2018-02-10T05:34:24.317Z,100634
2018-02-10T05:36:53.302Z,100630
2018-02-10T05:39:22.354Z,100634
2018-02-10T05:41:50.572Z,100633
2018-02-10T05:44:19.570Z,100632
2018-02-10T05:46:48.596Z,100634
2018-02-10T05:49:16.831Z,100638
2018-02-10T05:51:45.832Z,100634
2018-02-10T05:54:14.865Z,100633
2018-02-10T05:56:43.099Z,100643
2018-02-10T05:59:12.093Z,100639
2018-02-10T06:01:41.134Z,100643
2018-02-10T06:04:09.371Z,100642
2018-02-10T06:06:37.633Z,100653
2018-02-10T06:09:06.676Z,100649
2018-02-10T06:11:34.892Z,100649
2018-02-10T06:14:03.166Z,100655
2018-02-10T06:16:31.464Z,100656
2018-02-10T06:18:59.679Z,100652
2018-02-10T06:21:27.959Z,100657
2018-02-10T06:23:56.189Z,100655
2018-02-10T06:26:25.225Z,100654
2018-02-10T06:28:53.440Z,100658
2018-02-10T06:31:21.699Z,100658
2018-02-10T06:33:49.996Z,100664
2018-02-10T06:36:18.208Z,100664
2018-02-10T06:38:46.434Z,100653
2018-02-10T06:41:14.701Z,100667
2018-02-10T06:43:42.940Z,100668
2018-02-10T06:46:11.152Z,100672
2018-02-10T06:48:39.609Z,100670
2018-02-10T06:51:07.899Z,100675
2018-02-10T06:53:36.102Z,100672
2018-02-10T06:56:05.238Z,100681
2018-02-10T06:58:33.463Z,100671
2018-02-10T07:01:01.704Z,100671
2018-02-10T07:03:29.968Z,100683
2018-02-10T07:05:58.184Z,100680
2018-02-10T07:08:27.200Z,100680
2018-02-10T07:10:58.434Z,100677
2018-02-10T07:13:27.430Z,100680
2018-02-10T07:15:58.158Z,100686
2018-02-10T07:18:28.057Z,100685
2018-02-10T07:20:57.071Z,100692
2018-02-10T07:23:25.849Z,100685
2018-02-10T07:25:54.116Z,100691
2018-02-10T07:28:22.373Z,100695
2018-02-10T07:30:50.664Z,100699
2018-02-10T07:33:18.897Z,100696
2018-02-10T07:35:47.135Z,100715
2018-02-10T07:38:16.260Z,100709
2018-02-10T07:40:44.522Z,100708
2018-02-10T07:43:12.763Z,100697
2018-02-10T07:45:41.035Z,100701
2018-02-10T07:48:09.318Z,100702
2018-02-10T07:50:37.782Z,100700
2018-02-10T07:53:06.078Z,100710
2018-02-10T07:55:34.324Z,100708
2018-02-10T07:58:02.560Z,100711
2018-02-10T08:00:30.838Z,100723
2018-02-10T08:02:59.072Z,100725
2018-02-10T08:05:28.095Z,100723
2018-02-10T08:07:56.411Z,100716
2018-02-10T08:10:24.671Z,100725
2018-02-10T08:12:53.002Z,100717
2018-02-10T08:15:21.320Z,100718
2018-02-10T08:17:49.582Z,100720
2018-02-10T08:20:17.857Z,100724
2018-02-10T08:22:48.272Z,100717
2018-02-10T08:25:16.796Z,100730
2018-02-10T08:27:45.060Z,100723
2018-02-10T08:30:14.068Z,100733
2018-02-10T08:32:42.301Z,100727
2018-02-10T08:35:10.575Z,100733
2018-02-10T08:37:39.178Z,100734
2018-02-10T08:40:08.165Z,100734
2018-02-10T08:42:36.446Z,100735
2018-02-10T08:45:04.751Z,100737
2018-02-10T08:47:33.003Z,100721
2018-02-10T08:50:01.249Z,100724
2018-02-10T08:52:30.505Z,100726
2018-02-10T08:54:58.719Z,100726
2018-02-10T08:57:27.721Z,100726
2018-02-10T08:59:56.783Z,100728
2018-02-10T09:02:25.012Z,100732
2018-02-10T09:04:53.234Z,100732
2018-02-10T09:07:21.512Z,100729
2018-02-10T09:09:49.744Z,100733
2018-02-10T09:12:17.985Z,100730
2018-02-10T09:14:47.764Z,100728
2018-02-10T09:17:16.015Z,100718
2018-02-10T09:19:44.237Z,100729
2018-02-10T09:22:13.303Z,100742
2018-02-10T09:24:41.540Z,100742
2018-02-10T09:27:09.777Z,100739
2018-02-10T09:29:38.041Z,100729
2018-02-10T09:32:06.284Z,100719
2018-02-10T09:34:34.512Z,100721
2018-02-10T09:37:03.584Z,100718
2018-02-10T09:39:31.825Z,100716
2018-02-10T09:42:00.078Z,100710
2018-02-10T09:44:28.365Z,100715
2018-02-10T09:46:56.606Z,100718
2018-02-10T09:49:25.601Z,100713
2018-02-10T09:51:54.626Z,100721
2018-02-10T09:54:23.092Z,100715
2018-02-10T09:56:51.329Z,100720
2018-02-10T09:59:19.604Z,100718
2018-02-10T10:01:47.856Z,100724
2018-02-10T10:04:16.092Z,100712
2018-02-10T10:06:44.398Z,100709
2018-02-10T10:09:12.640Z,100706
2018-02-10T10:11:40.900Z,100712
2018-02-10T10:14:10.499Z,100706
2018-02-10T10:16:39.508Z,100705
2018-02-10T10:19:07.777Z,100714
2018-02-10T10:21:36.832Z,100701
2018-02-10T10:24:05.435Z,100697
2018-02-10T10:26:33.690Z,100692
2018-02-10T10:29:01.998Z,100692
2018-02-10T10:31:31.023Z,100683
2018-02-10T10:33:59.279Z,100686
2018-02-10T10:36:28.323Z,100689
2018-02-10T10:38:56.570Z,100689
2018-02-10T10:41:24.811Z,100692
2018-02-10T10:43:53.869Z,100668
2018-02-10T10:46:22.098Z,100679
2018-02-10T10:48:50.342Z,100679
2018-02-10T10:51:18.669Z,100681
2018-02-10T10:53:46.922Z,100670
2018-02-10T10:56:15.193Z,100661
2018-02-10T10:58:44.246Z,100664
2018-02-10T11:01:12.502Z,100662
2018-02-10T11:03:40.762Z,100668
2018-02-10T11:06:09.059Z,100661
2018-02-10T11:08:37.410Z,100660
2018-02-10T11:11:05.661Z,100653
2018-02-10T11:13:33.950Z,100651
2018-02-10T11:16:03.048Z,100651
2018-02-10T11:18:31.373Z,100645
2018-02-10T11:20:59.660Z,100650
2018-02-10T11:23:27.916Z,100643
2018-02-10T11:25:56.162Z,100637
2018-02-10T11:28:24.493Z,100631
2018-02-10T11:30:52.746Z,100636
2018-02-10T11:33:20.976Z,100629
2018-02-10T11:35:50.030Z,100633
2018-02-10T11:38:18.320Z,100613
2018-02-10T11:40:46.614Z,100615
2018-02-10T11:43:14.959Z,100626
2018-02-10T11:45:43.268Z,100637
2018-02-10T11:48:12.289Z,100611
2018-02-10T11:50:40.577Z,100613
2018-02-10T11:53:08.811Z,100608
2018-02-10T11:55:37.096Z,100601
2018-02-10T11:58:05.498Z,100602
2018-02-10T12:00:33.780Z,100599
2018-02-10T12:03:02.012Z,100597
2018-02-10T12:05:30.384Z,100592
2018-02-10T12:07:59.411Z,100592
2018-02-10T12:10:27.672Z,100594
2018-02-10T12:12:56.817Z,100601
2018-02-10T12:15:25.046Z,100596
2018-02-10T12:17:53.325Z,100594
2018-02-10T12:20:21.639Z,100595
2018-02-10T12:22:49.860Z,100591
2018-02-10T12:25:18.928Z,100576
2018-02-10T12:27:47.224Z,100591
2018-02-10T12:30:16.245Z,100594
2018-02-10T12:32:44.511Z,100595
2018-02-10T12:35:12.785Z,100595
2018-02-10T12:37:41.802Z,100601
2018-02-10T12:40:10.073Z,100599
2018-02-10T12:42:38.371Z,100593
2018-02-10T12:45:06.609Z,100591
2018-02-10T12:50:40.640Z,100586
2018-02-10T12:53:08.904Z,100590
2018-02-10T12:55:37.901Z,100582
2018-02-10T12:58:06.441Z,100591
2018-02-10T13:00:34.715Z,100579
2018-02-10T13:03:02.989Z,100567
2018-02-10T13:05:31.948Z,100570
2018-02-10T13:08:00.227Z,100567
2018-02-10T13:10:28.481Z,100573
2018-02-10T13:12:56.728Z,100573
2018-02-10T13:15:25.010Z,100577
2018-02-10T13:17:54.017Z,100564
2018-02-10T13:20:22.240Z,100572
2018-02-10T13:22:50.524Z,100568
2018-02-10T13:25:18.807Z,100572
2018-02-10T13:27:47.036Z,100559
2018-02-10T13:30:15.313Z,100567
2018-02-10T13:32:43.582Z,100559
2018-02-10T13:35:11.799Z,100559
2018-02-10T13:37:40.199Z,100551
2018-02-10T13:40:08.437Z,100552
2018-02-10T13:42:36.673Z,100551
2018-02-10T13:45:05.723Z,100548
2018-02-10T13:47:33.963Z,100552
2018-02-10T13:50:02.216Z,100557
2018-02-10T13:52:32.051Z,100562
2018-02-10T13:55:00.288Z,100557
2018-02-10T13:57:28.526Z,100557
2018-02-10T13:59:56.828Z,100553
2018-02-10T14:02:25.055Z,100555
2018-02-10T14:04:53.281Z,100559
2018-02-10T14:07:21.620Z,100553
2018-02-10T14:09:49.861Z,100564
2018-02-10T14:12:18.862Z,100564
2018-02-10T14:14:47.161Z,100557
2018-02-10T14:17:15.747Z,100563
2018-02-10T14:19:44.086Z,100546
2018-02-10T14:22:12.495Z,100558
2018-02-10T14:24:40.753Z,100544
2018-02-10T14:27:09.054Z,100545
2018-02-10T14:29:37.359Z,100535
2018-02-10T14:32:05.668Z,100540
2018-02-10T14:34:34.009Z,100534
2018-02-10T14:37:02.299Z,100527
2018-02-10T14:39:30.662Z,100530
2018-02-10T14:41:58.915Z,100536
2018-02-10T14:44:27.209Z,100523
2018-02-10T14:46:55.598Z,100524
2018-02-10T14:49:23.819Z,100517
2018-02-10T14:51:52.082Z,100519
2018-02-10T14:54:21.133Z,100512
2018-02-10T14:56:49.369Z,100522
2018-02-10T14:59:17.657Z,100517
2018-02-10T15:01:45.939Z,100526
2018-02-10T15:04:14.247Z,100520
2018-02-10T15:06:42.554Z,100528
2018-02-10T15:09:11.580Z,100520
2018-02-10T15:11:39.815Z,100518
2018-02-10T15:14:08.286Z,100515
2018-02-10T15:16:36.538Z,100519
2018-02-10T15:19:04.770Z,100522
2018-02-10T15:21:33.041Z,100526
2018-02-10T15:24:01.274Z,100521
2018-02-10T15:26:29.633Z,100517
2018-02-10T15:28:57.916Z,100517
2018-02-10T15:31:26.132Z,100515
2018-02-10T15:34:13.242Z,100515
2018-02-10T15:36:41.575Z,100514
2018-02-10T15:39:09.884Z,100505
2018-02-10T15:41:38.401Z,100517
2018-02-10T15:44:06.692Z,100512
2018-02-10T15:46:35.009Z,100509
2018-02-10T15:49:03.293Z,100514
2018-02-10T15:51:31.618Z,100509
2018-02-10T15:53:59.874Z,100514
2018-02-10T15:56:28.125Z,100513
2018-02-10T15:58:56.432Z,100521
2018-02-10T16:01:24.653Z,100520
2018-02-10T16:03:52.894Z,100527
2018-02-10T16:06:21.205Z,100536
2018-02-10T16:08:49.429Z,100538
2018-02-10T16:11:17.677Z,100546
2018-02-10T16:13:46.164Z,100546
2018-02-10T16:16:14.521Z,100534
2018-02-10T16:18:42.792Z,100538
2018-02-10T16:21:11.073Z,100534
2018-02-10T16:23:39.295Z,100542
2018-02-10T16:26:08.356Z,100535
2018-02-10T16:28:37.443Z,100527
2018-02-10T16:31:05.814Z,100521
2018-02-10T16:33:34.062Z,100516
2018-02-10T16:36:02.391Z,100515
2018-02-10T16:38:30.660Z,100517
2018-02-10T16:41:00.878Z,100516
2018-02-10T16:43:29.965Z,100519
2018-02-10T16:45:59.056Z,100526
2018-02-10T16:48:27.303Z,100517
2018-02-10T16:50:56.503Z,100516
2018-02-10T16:53:24.736Z,100516
2018-02-10T16:55:53.733Z,100516
2018-02-10T16:58:22.055Z,100528
2018-02-10T17:00:50.303Z,100529
2018-02-10T17:03:18.596Z,100523
2018-02-10T17:05:46.881Z,100522
2018-02-10T17:08:15.191Z,100514
2018-02-10T17:10:44.241Z,100523
2018-02-10T17:13:12.518Z,100514
2018-02-10T17:15:40.850Z,100506
2018-02-10T17:18:09.857Z,100507
2018-02-10T17:20:38.146Z,100513
2018-02-10T17:23:06.372Z,100516
2018-02-10T17:25:34.769Z,100514
2018-02-10T17:28:03.097Z,100526
2018-02-10T17:30:31.318Z,100519
2018-02-10T17:33:00.356Z,100513
2018-02-10T17:35:29.405Z,100522
2018-02-10T17:37:58.732Z,100515
2018-02-10T17:40:27.147Z,100525
2018-02-10T17:42:55.416Z,100517
2018-02-10T17:45:23.815Z,100519
2018-02-10T17:47:52.134Z,100516
2018-02-10T17:50:20.546Z,100524
2018-02-10T17:52:48.883Z,100528
2018-02-10T17:55:17.285Z,100532
2018-02-10T17:57:45.693Z,100523
2018-02-10T18:00:14.769Z,100515
2018-02-10T18:02:43.084Z,100512
2018-02-10T18:05:11.315Z,100530
2018-02-10T18:07:39.581Z,100536
2018-02-10T18:10:07.911Z,100532
2018-02-10T18:12:36.242Z,100521
2018-02-10T18:15:04.483Z,100513
2018-02-10T18:17:33.517Z,100516
2018-02-10T18:20:01.777Z,100526
2018-02-10T18:22:30.069Z,100517
2018-02-10T18:24:58.365Z,100509
2018-02-10T18:27:26.604Z,100515
2018-02-10T18:29:54.839Z,100506
2018-02-10T18:32:23.322Z,100508
2018-02-10T18:34:51.590Z,100504
2018-02-10T18:37:19.834Z,100493
2018-02-10T18:39:48.110Z,100493
2018-02-10T18:42:16.376Z,100497
2018-02-10T18:44:44.622Z,100489
2018-02-10T18:47:12.937Z,100490
2018-02-10T18:49:41.180Z,100483
2018-02-10T18:52:09.461Z,100490
2018-02-10T18:54:38.014Z,100495
2018-02-10T18:57:07.038Z,100487
2018-02-10T18:59:35.288Z,100493
2018-02-10T19:02:04.323Z,100493
2018-02-10T19:04:32.604Z,100491
2018-02-10T19:07:00.884Z,100491
2018-02-10T19:09:29.367Z,100489
2018-02-10T19:11:57.662Z,100491
2018-02-10T19:14:25.929Z,100486
2018-02-10T19:16:54.250Z,100491
2018-02-10T19:19:23.246Z,100485
2018-02-10T19:21:51.490Z,100484
2018-02-10T19:24:19.772Z,100479
2018-02-10T19:26:48.081Z,100480
2018-02-10T19:29:16.453Z,100476
2018-02-10T19:31:44.747Z,100481
2018-02-10T19:34:13.004Z,100476
2018-02-10T19:36:41.351Z,100479
2018-02-10T19:39:09.574Z,100480
2018-02-10T19:41:37.875Z,100478
2018-02-10T19:44:06.159Z,100464
2018-02-10T19:46:34.404Z,100463
2018-02-10T19:49:02.688Z,100470
2018-02-10T19:51:30.960Z,100474
2018-02-10T19:53:59.227Z,100468
2018-02-10T19:56:27.825Z,100458
2018-02-10T19:58:56.081Z,100467
2018-02-10T20:01:24.342Z,100462
2018-02-10T20:03:52.681Z,100463
2018-02-10T20:06:21.344Z,100458
2018-02-10T20:08:49.799Z,100458
2018-02-10T20:11:18.245Z,100463
2018-02-10T20:13:47.369Z,100453
2018-02-10T20:16:15.722Z,100444
2018-02-10T20:18:44.846Z,100449
2018-02-10T20:21:13.279Z,100447
2018-02-10T20:23:41.681Z,100446
2018-02-10T20:26:10.867Z,100436
2018-02-10T20:28:39.125Z,100446
2018-02-10T20:31:07.515Z,100448
2018-02-10T20:33:35.796Z,100443
2018-02-10T20:36:04.146Z,100448
2018-02-10T20:38:32.591Z,100449
2018-02-10T20:41:00.896Z,100450
2018-02-10T20:43:29.205Z,100444
2018-02-10T20:45:57.558Z,100454
2018-02-10T20:48:25.961Z,100460
2018-02-10T20:50:55.109Z,100451
2018-02-10T20:53:23.826Z,100445
2018-02-10T20:55:52.100Z,100446
2018-02-10T20:58:20.391Z,100445
2018-02-10T21:00:48.816Z,100444
2018-02-10T21:03:17.327Z,100436
2018-02-10T21:05:45.648Z,100444
2018-02-10T21:08:15.119Z,100439
2018-02-10T21:10:43.529Z,100434
2018-02-10T21:13:12.741Z,100429
2018-02-10T21:15:41.100Z,100428
2018-02-10T21:18:10.241Z,100427
2018-02-10T21:20:38.819Z,100428
2018-02-10T21:23:07.118Z,100438
2018-02-10T21:25:35.636Z,100432
2018-02-10T21:28:04.769Z,100427
2018-02-10T21:30:39.472Z,100431
2018-02-10T21:33:08.532Z,100430
2018-02-10T21:35:37.250Z,100423
2018-02-10T21:38:06.022Z,100424
2018-02-10T21:40:35.223Z,100434
2018-02-10T21:43:04.056Z,100422
2018-02-10T21:45:33.416Z,100426
2018-02-10T21:48:02.540Z,100407
2018-02-10T21:50:30.937Z,100409
2018-02-10T21:53:00.955Z,100406
2018-02-10T21:55:30.080Z,100397
2018-02-10T21:57:58.351Z,100395
2018-02-10T22:00:26.668Z,100392
2018-02-10T22:02:54.961Z,100385
2018-02-10T22:05:23.916Z,100389
2018-02-10T22:07:52.996Z,100384
2018-02-10T22:10:21.340Z,100391
2018-02-10T22:12:49.654Z,100376
2018-02-10T22:15:17.950Z,100387
2018-02-10T22:17:46.477Z,100382
2018-02-10T22:20:14.900Z,100391
2018-02-10T22:22:43.124Z,100372
2018-02-10T22:25:11.395Z,100378
2018-02-10T22:27:39.692Z,100374
2018-02-10T22:30:08.000Z,100378
2018-02-10T22:32:36.313Z,100373
2018-02-10T22:35:04.699Z,100370
2018-02-10T22:37:33.030Z,100369
2018-02-10T22:40:01.464Z,100370
2018-02-10T22:42:29.703Z,100370
2018-02-10T22:44:57.943Z,100368
2018-02-10T22:47:26.282Z,100373
2018-02-10T22:49:54.596Z,100368
2018-02-10T22:52:22.900Z,100364
2018-02-10T22:54:51.976Z,100365
2018-02-10T22:57:20.253Z,100360
2018-02-10T22:59:48.558Z,100359
2018-02-10T23:02:17.642Z,100362
2018-02-10T23:04:45.955Z,100369
2018-02-10T23:07:14.299Z,100363
2018-02-10T23:09:42.596Z,100364
2018-02-10T23:12:10.901Z,100357
2018-02-10T23:14:39.234Z,100363
2018-02-10T23:17:08.257Z,100361
2018-02-10T23:19:36.616Z,100354
2018-02-10T23:22:04.917Z,100353
2018-02-10T23:24:33.208Z,100344
2018-02-10T23:27:01.503Z,100343
2018-02-10T23:29:29.744Z,100348
2018-02-10T23:31:57.986Z,100338
2018-02-10T23:34:27.018Z,100338
2018-02-10T23:36:55.281Z,100334
2018-02-10T23:39:23.557Z,100332
2018-02-10T23:41:51.855Z,100334
2018-02-10T23:44:20.194Z,100332
2018-02-10T23:46:48.563Z,100335
2018-02-10T23:49:17.628Z,100333
2018-02-10T23:51:46.721Z,100322
2018-02-10T23:54:15.061Z,100320
2018-02-10T23:56:43.376Z,100326
2018-02-10T23:59:11.726Z,100318
